Time;durP1;ratioP1;P1;durP2;ratioP2;P2;SDS_P1;SDS_P2;PMS_P1;PMS_P2;Temp;Humidity;BMP_temperature;BMP_pressure;BME280_temperature;BME280_humidity;BME280_pressure;Samples;Min_cycle;Max_cycle;Signal;HPM_P1;HPM_P2
2023/07/05 00:00:05;;;;;;;3.72;1.98;;;12.70;99.90;;;;;;5054185;28;20098;-48
2023/07/05 00:02:32;;;;;;;6.07;2.40;;;12.70;99.90;;;;;;5054397;28;20404;-47
2023/07/05 00:04:59;;;;;;;7.13;2.40;;;12.70;99.90;;;;;;5053883;28;20067;-50
2023/07/05 00:07:26;;;;;;;4.47;2.38;;;12.70;99.90;;;;;;5053832;28;20132;-45
2023/07/05 00:09:53;;;;;;;5.47;2.10;;;12.70;99.90;;;;;;5053927;28;20036;-48
2023/07/05 00:12:20;;;;;;;4.13;2.53;;;12.70;99.90;;;;;;5052446;28;20065;-47
2023/07/05 00:14:47;;;;;;;7.75;2.60;;;12.70;99.90;;;;;;5054081;28;20043;-46
2023/07/05 00:17:13;;;;;;;3.83;2.50;;;12.70;99.90;;;;;;5054040;28;20471;-48
2023/07/05 00:19:41;;;;;;;5.95;2.85;;;12.60;99.90;;;;;;5052217;28;20040;-49
2023/07/05 00:22:08;;;;;;;4.70;2.35;;;12.70;99.90;;;;;;5053796;28;20047;-47
2023/07/05 00:24:35;;;;;;;6.90;3.05;;;12.70;99.90;;;;;;5053333;28;20041;-45
2023/07/05 00:27:02;;;;;;;3.97;2.67;;;12.70;99.90;;;;;;5052862;28;20112;-48
2023/07/05 00:29:29;;;;;;;7.15;3.00;;;12.70;99.90;;;;;;5053681;28;20123;-45
2023/07/05 00:31:56;;;;;;;4.05;3.30;;;12.70;99.90;;;;;;5052563;28;20045;-48
2023/07/05 00:34:23;;;;;;;5.65;3.40;;;12.70;99.90;;;;;;5053269;28;20079;-48
2023/07/05 00:36:49;;;;;;;5.65;3.85;;;12.70;99.90;;;;;;5053627;28;20365;-45
2023/07/05 00:39:16;;;;;;;5.40;3.85;;;12.70;99.90;;;;;;5053591;28;20048;-47
2023/07/05 00:41:43;;;;;;;6.35;4.40;;;12.70;99.90;;;;;;5053057;28;20049;-48
2023/07/05 00:44:10;;;;;;;4.95;3.88;;;12.70;99.90;;;;;;5053319;28;20047;-46
2023/07/05 00:46:37;;;;;;;5.95;4.07;;;12.80;99.90;;;;;;5053017;28;20047;-54
2023/07/05 00:49:03;;;;;;;6.55;4.45;;;12.70;99.90;;;;;;5053350;28;20044;-48
2023/07/05 00:51:31;;;;;;;6.50;4.63;;;12.80;99.90;;;;;;5053236;28;20075;-47
2023/07/05 00:53:58;;;;;;;6.53;4.03;;;12.80;99.90;;;;;;5035347;28;20041;-52
2023/07/05 00:56:25;;;;;;;4.97;4.40;;;12.80;99.90;;;;;;5053287;28;20081;-50
2023/07/05 00:58:51;;;;;;;6.03;4.40;;;12.80;99.90;;;;;;5035570;28;20055;-48
2023/07/05 01:01:18;;;;;;;7.70;4.90;;;12.80;99.90;;;;;;5051865;28;20049;-45
2023/07/05 01:03:45;;;;;;;5.63;4.30;;;12.70;99.90;;;;;;5051685;28;20059;-51
2023/07/05 01:06:14;;;;;;;8.27;4.75;;;12.80;99.90;;;;;;5053302;28;20037;-50
2023/07/05 01:08:41;;;;;;;7.07;4.45;;;12.70;99.90;;;;;;5053448;28;20048;-50
2023/07/05 01:11:07;;;;;;;7.82;4.50;;;12.70;99.90;;;;;;5051659;28;20388;-49
2023/07/05 01:13:35;;;;;;;6.05;4.38;;;12.70;99.90;;;;;;5053257;28;20041;-50
2023/07/05 01:16:02;;;;;;;9.20;4.65;;;12.80;99.90;;;;;;5053367;28;20060;-49
2023/07/05 01:18:29;;;;;;;7.38;5.50;;;12.70;99.90;;;;;;5053063;28;20033;-50
2023/07/05 01:20:56;;;;;;;8.43;4.82;;;12.80;99.90;;;;;;5051944;28;20365;-48
2023/07/05 01:23:24;;;;;;;8.52;4.85;;;12.80;99.90;;;;;;5053080;28;20047;-47
2023/07/05 01:25:52;;;;;;;7.25;4.85;;;12.80;99.90;;;;;;5051504;28;20463;-50
2023/07/05 01:28:19;;;;;;;9.00;4.78;;;12.80;99.90;;;;;;5067311;28;20519;-49
2023/07/05 01:30:46;;;;;;;7.05;4.50;;;12.80;99.90;;;;;;5053000;28;20373;-51
2023/07/05 01:33:13;;;;;;;6.60;4.95;;;12.80;99.90;;;;;;5053108;28;20131;-47
2023/07/05 01:35:41;;;;;;;7.53;4.80;;;12.80;99.90;;;;;;5051680;28;20484;-48
2023/07/05 01:38:09;;;;;;;5.85;4.25;;;12.80;99.90;;;;;;5035759;28;20041;-48
2023/07/05 01:40:36;;;;;;;6.68;4.63;;;12.80;99.90;;;;;;5053050;28;20464;-49
2023/07/05 01:43:03;;;;;;;7.75;5.30;;;12.80;99.90;;;;;;5053425;28;20115;-49
2023/07/05 01:45:30;;;;;;;7.72;5.13;;;12.80;99.90;;;;;;5056594;28;20047;-48
2023/07/05 01:47:57;;;;;;;8.02;4.88;;;12.80;99.90;;;;;;5056503;28;20555;-53
2023/07/05 01:50:24;;;;;;;7.18;4.90;;;12.80;99.90;;;;;;5056686;28;20037;-49
2023/07/05 01:52:51;;;;;;;7.32;4.65;;;12.80;99.90;;;;;;5056341;28;20395;-47
2023/07/05 01:55:18;;;;;;;7.15;4.80;;;12.90;99.90;;;;;;5056389;28;20041;-48
2023/07/05 01:57:45;;;;;;;7.32;4.47;;;12.90;99.90;;;;;;5056209;28;20069;-46
2023/07/05 02:00:12;;;;;;;6.72;4.20;;;12.90;99.90;;;;;;5056268;28;20116;-45
2023/07/05 02:02:38;;;;;;;8.57;4.50;;;12.90;99.90;;;;;;5055989;28;20099;-45
2023/07/05 02:05:05;;;;;;;5.70;3.78;;;12.90;99.90;;;;;;5054682;28;20048;-45
2023/07/05 02:07:32;;;;;;;7.78;4.43;;;12.80;99.90;;;;;;5055736;28;20029;-46
2023/07/05 02:09:59;;;;;;;7.65;4.00;;;12.80;99.90;;;;;;5055734;28;20116;-45
2023/07/05 02:12:26;;;;;;;5.45;3.83;;;12.80;99.90;;;;;;5054461;28;20061;-48
2023/07/05 02:14:53;;;;;;;5.97;3.67;;;12.80;99.90;;;;;;5056138;28;20045;-45
2023/07/05 02:17:19;;;;;;;7.90;3.90;;;12.80;99.90;;;;;;5055971;28;20460;-46
2023/07/05 02:19:46;;;;;;;7.18;3.53;;;12.80;99.90;;;;;;5054823;28;20048;-50
2023/07/05 02:22:13;;;;;;;7.95;3.22;;;12.70;99.90;;;;;;5056064;28;20102;-55
2023/07/05 02:24:40;;;;;;;6.47;3.08;;;12.70;99.90;;;;;;5054895;28;20123;-48
2023/07/05 02:27:07;;;;;;;6.05;2.75;;;12.60;99.90;;;;;;5053895;28;20055;-48
2023/07/05 02:29:34;;;;;;;5.93;3.15;;;12.60;99.90;;;;;;5055761;28;20045;-48
2023/07/05 02:32:01;;;;;;;5.60;2.88;;;12.60;99.90;;;;;;5055937;28;20037;-51
2023/07/05 02:34:28;;;;;;;9.07;2.80;;;12.60;99.90;;;;;;5055098;28;20468;-46
2023/07/05 02:36:55;;;;;;;7.22;3.00;;;12.50;99.90;;;;;;5053851;28;20041;-49
2023/07/05 02:39:21;;;;;;;5.10;2.55;;;12.40;99.90;;;;;;5055512;28;20384;-49
2023/07/05 02:41:48;;;;;;;4.72;2.70;;;12.40;99.90;;;;;;5054371;28;20411;-47
2023/07/05 02:44:15;;;;;;;7.03;2.75;;;12.40;99.90;;;;;;5055526;28;20126;-47
2023/07/05 02:46:42;;;;;;;6.00;2.75;;;12.30;99.90;;;;;;5054387;28;20510;-47
2023/07/05 02:49:09;;;;;;;8.02;2.50;;;12.30;99.90;;;;;;5055370;28;20090;-48
2023/07/05 02:51:35;;;;;;;5.40;2.60;;;12.20;99.90;;;;;;5055245;28;20041;-45
2023/07/05 02:54:02;;;;;;;5.38;2.22;;;12.10;99.90;;;;;;5055139;28;20040;-45
2023/07/05 02:56:29;;;;;;;6.18;2.67;;;12.10;99.90;;;;;;5055447;28;20033;-47
2023/07/05 02:58:56;;;;;;;6.03;2.38;;;12.00;99.90;;;;;;5055026;28;20055;-48
2023/07/05 03:01:23;;;;;;;7.00;2.70;;;12.00;99.90;;;;;;5055288;28;20041;-50
2023/07/05 03:03:50;;;;;;;4.50;2.08;;;11.90;99.90;;;;;;5054876;28;20049;-47
2023/07/05 03:06:17;;;;;;;3.58;2.10;;;11.90;99.90;;;;;;5053839;28;20492;-50
2023/07/05 03:08:44;;;;;;;4.60;2.25;;;11.90;99.90;;;;;;5054012;28;20045;-51
2023/07/05 03:11:10;;;;;;;7.25;2.40;;;11.80;99.90;;;;;;5055027;28;20037;-50
2023/07/05 03:13:37;;;;;;;7.07;2.30;;;11.80;99.90;;;;;;5070427;28;20044;-52
2023/07/05 03:16:05;;;;;;;6.45;2.08;;;11.70;99.90;;;;;;5055175;28;20131;-45
2023/07/05 03:18:32;;;;;;;4.88;2.15;;;11.70;99.90;;;;;;5053692;28;20476;-46
2023/07/05 03:20:59;;;;;;;8.38;2.35;;;11.70;99.90;;;;;;5054872;28;20041;-45
2023/07/05 03:23:25;;;;;;;6.00;2.35;;;11.70;99.90;;;;;;5053404;28;20102;-45
2023/07/05 03:25:52;;;;;;;7.20;2.65;;;11.60;99.90;;;;;;5053457;28;20435;-46
2023/07/05 03:28:19;;;;;;;4.97;2.33;;;11.60;99.90;;;;;;5052479;28;20071;-47
2023/07/05 03:30:46;;;;;;;5.63;2.42;;;11.60;99.90;;;;;;5069540;28;20095;-48
2023/07/05 03:33:14;;;;;;;8.10;2.13;;;11.50;99.90;;;;;;5052737;28;20045;-47
2023/07/05 03:35:41;;;;;;;7.40;2.10;;;11.50;99.90;;;;;;5054484;28;20033;-44
2023/07/05 03:38:08;;;;;;;5.85;2.20;;;11.50;99.90;;;;;;5054635;28;20120;-50
2023/07/05 03:40:35;;;;;;;6.20;2.00;;;11.40;99.90;;;;;;5053307;28;20045;-51
2023/07/05 03:43:01;;;;;;;8.00;2.40;;;11.40;99.90;;;;;;5053161;28;20049;-46
2023/07/05 03:45:28;;;;;;;6.45;2.40;;;11.40;99.90;;;;;;5053375;28;20037;-50
2023/07/05 03:47:55;;;;;;;5.15;2.38;;;11.40;99.90;;;;;;5054460;28;20041;-49
2023/07/05 03:50:22;;;;;;;6.35;2.10;;;11.40;99.90;;;;;;5054359;28;20044;-48
2023/07/05 03:52:48;;;;;;;5.88;1.98;;;11.40;99.90;;;;;;5052808;28;20388;-47
2023/07/05 03:55:15;;;;;;;5.72;2.20;;;11.30;99.90;;;;;;5054445;28;20473;-49
2023/07/05 03:57:42;;;;;;;7.97;1.92;;;11.30;99.90;;;;;;5053049;28;20048;-50
2023/07/05 04:00:09;;;;;;;5.00;2.10;;;11.30;99.90;;;;;;5054245;28;20082;-53
2023/07/05 04:02:37;;;;;;;7.90;2.15;;;11.30;99.90;;;;;;5053948;28;20037;-49
2023/07/05 04:05:04;;;;;;;6.57;2.45;;;11.30;99.90;;;;;;5053037;28;20139;-50
2023/07/05 04:07:31;;;;;;;6.20;2.17;;;11.30;99.90;;;;;;5053790;28;20059;-50
2023/07/05 04:09:58;;;;;;;7.22;2.10;;;11.30;99.90;;;;;;5053020;28;20044;-48
2023/07/05 04:12:25;;;;;;;6.88;2.22;;;11.30;99.90;;;;;;5053861;28;20041;-49
2023/07/05 04:14:53;;;;;;;7.15;2.35;;;11.30;99.90;;;;;;5053931;28;20045;-50
2023/07/05 04:17:20;;;;;;;10.52;2.42;;;11.20;99.90;;;;;;5053821;28;20128;-44
2023/07/05 04:19:46;;;;;;;10.15;2.28;;;11.20;99.90;;;;;;5054032;28;20052;-48
2023/07/05 04:22:13;;;;;;;9.65;2.58;;;11.20;99.90;;;;;;5053865;28;20095;-46
2023/07/05 04:24:40;;;;;;;10.07;3.03;;;11.20;99.90;;;;;;5053981;28;20511;-45
2023/07/05 04:27:07;;;;;;;9.07;2.95;;;11.30;99.90;;;;;;5053722;28;20048;-49
2023/07/05 04:29:34;;;;;;;10.35;3.00;;;11.30;99.90;;;;;;5052242;28;20457;-47
2023/07/05 04:32:00;;;;;;;6.22;2.70;;;11.30;99.90;;;;;;5053606;28;20476;-49
2023/07/05 04:34:27;;;;;;;6.18;2.90;;;11.30;99.90;;;;;;5053627;28;20119;-46
2023/07/05 04:36:54;;;;;;;9.30;2.90;;;11.30;99.90;;;;;;5053508;28;20044;-45
2023/07/05 04:39:21;;;;;;;9.57;3.28;;;11.40;99.90;;;;;;5053595;28;20051;-47
2023/07/05 04:41:47;;;;;;;9.27;3.25;;;11.40;99.90;;;;;;5053261;28;20396;-47
2023/07/05 04:44:14;;;;;;;6.28;2.92;;;11.50;99.90;;;;;;5053551;28;20037;-45
2023/07/05 04:46:41;;;;;;;9.95;3.45;;;11.60;99.90;;;;;;5053125;28;20037;-45
2023/07/05 04:49:08;;;;;;;7.43;2.50;;;11.70;99.90;;;;;;5053540;28;20041;-46
2023/07/05 04:51:34;;;;;;;8.95;2.75;;;11.80;99.90;;;;;;5053026;28;20040;-45
2023/07/05 04:54:01;;;;;;;8.23;2.90;;;11.90;99.90;;;;;;5052567;28;20037;-47
2023/07/05 04:56:28;;;;;;;8.43;2.95;;;12.00;99.90;;;;;;5033096;28;20488;-49
2023/07/05 04:58:55;;;;;;;5.72;2.40;;;12.20;99.90;;;;;;5033415;28;20112;-49
2023/07/05 05:01:22;;;;;;;7.25;2.60;;;12.20;99.90;;;;;;5033642;28;20056;-50
2023/07/05 05:03:48;;;;;;;6.15;2.58;;;12.30;99.90;;;;;;5033182;28;20436;-51
2023/07/05 05:06:15;;;;;;;7.22;2.70;;;12.40;99.90;;;;;;5033638;28;20049;-50
2023/07/05 05:08:42;;;;;;;6.15;2.60;;;12.60;99.90;;;;;;5033528;28;20052;-47
2023/07/05 05:11:09;;;;;;;8.07;2.50;;;12.70;99.90;;;;;;5033672;28;20476;-47
2023/07/05 05:13:35;;;;;;;7.72;2.42;;;12.80;99.90;;;;;;5033293;28;20095;-49
2023/07/05 05:16:02;;;;;;;5.95;2.42;;;12.90;99.90;;;;;;5033226;28;20041;-53
2023/07/05 05:18:29;;;;;;;5.00;2.20;;;12.90;99.90;;;;;;5034603;28;20113;-46
2023/07/05 05:20:56;;;;;;;6.53;2.47;;;13.00;99.90;;;;;;5037166;28;20492;-46
2023/07/05 05:23:23;;;;;;;6.97;2.13;;;13.10;99.90;;;;;;5037189;28;20052;-48
2023/07/05 05:25:50;;;;;;;7.45;2.20;;;13.10;99.90;;;;;;5052063;28;20045;-50
2023/07/05 05:28:17;;;;;;;8.45;2.25;;;13.20;99.90;;;;;;5055115;28;20048;-46
2023/07/05 05:30:44;;;;;;;5.47;2.03;;;13.20;99.90;;;;;;5057020;28;20041;-48
2023/07/05 05:33:11;;;;;;;7.60;2.38;;;13.30;99.90;;;;;;5056700;28;20041;-48
2023/07/05 05:35:38;;;;;;;9.85;2.42;;;13.40;99.90;;;;;;5056831;28;20060;-49
2023/07/05 05:38:04;;;;;;;9.05;2.33;;;13.40;99.90;;;;;;5056775;28;20045;-46
2023/07/05 05:40:31;;;;;;;6.93;2.17;;;13.50;99.90;;;;;;5056545;28;20489;-48
2023/07/05 05:42:58;;;;;;;4.57;2.13;;;13.50;99.90;;;;;;5056957;28;20037;-52
2023/07/05 05:45:25;;;;;;;9.57;2.83;;;13.60;99.90;;;;;;5056894;28;20068;-48
2023/07/05 05:47:52;;;;;;;7.97;2.33;;;13.60;99.90;;;;;;5056500;28;20037;-47
2023/07/05 05:50:22;;;;;;;6.90;2.42;;;13.60;99.90;;;;;;5056657;28;20052;-50
2023/07/05 05:52:49;;;;;;;7.13;2.78;;;13.60;99.90;;;;;;5056613;28;20099;-52
2023/07/05 05:55:16;;;;;;;7.45;2.30;;;13.70;99.90;;;;;;5056244;28;20120;-48
2023/07/05 05:57:43;;;;;;;6.45;2.00;;;13.80;99.90;;;;;;5056460;28;20051;-47
2023/07/05 06:00:10;;;;;;;9.32;2.63;;;13.80;99.90;;;;;;5055362;28;20403;-46
2023/07/05 06:02:36;;;;;;;8.23;2.85;;;13.90;99.90;;;;;;5056298;28;20045;-46
2023/07/05 06:05:03;;;;;;;9.55;2.35;;;13.90;99.90;;;;;;5056517;28;20088;-45
2023/07/05 06:07:30;;;;;;;5.95;2.10;;;14.00;99.90;;;;;;5056373;28;20036;-45
2023/07/05 06:09:57;;;;;;;7.53;2.58;;;14.00;99.90;;;;;;5055097;28;20127;-47
2023/07/05 06:12:24;;;;;;;8.57;2.72;;;14.00;99.90;;;;;;5054822;28;20041;-47
2023/07/05 06:14:50;;;;;;;8.30;2.30;;;13.90;99.90;;;;;;5055860;28;20507;-45
2023/07/05 06:17:17;;;;;;;7.18;2.63;;;13.80;99.90;;;;;;5055741;28;20044;-49
2023/07/05 06:19:44;;;;;;;8.55;2.70;;;13.80;99.90;;;;;;5055635;28;20037;-45
2023/07/05 06:22:11;;;;;;;5.82;2.40;;;13.90;99.90;;;;;;5055989;28;20045;-46
2023/07/05 06:24:37;;;;;;;6.70;2.30;;;13.90;99.90;;;;;;5054659;28;20052;-46
2023/07/05 06:27:04;;;;;;;8.43;2.58;;;13.80;99.90;;;;;;5055877;28;20055;-48
2023/07/05 06:29:31;;;;;;;4.80;2.55;;;13.80;99.90;;;;;;5055004;28;20472;-46
2023/07/05 06:31:58;;;;;;;7.97;2.72;;;13.80;99.90;;;;;;5055762;28;20044;-45
2023/07/05 06:34:25;;;;;;;7.43;2.78;;;13.70;99.90;;;;;;5056015;28;20033;-45
2023/07/05 06:36:52;;;;;;;4.90;2.30;;;13.80;99.90;;;;;;5055247;28;20041;-45
2023/07/05 06:39:18;;;;;;;5.68;2.55;;;13.70;99.90;;;;;;5055199;28;20503;-46
2023/07/05 06:41:47;;;;;;;5.70;2.30;;;13.70;99.90;;;;;;5055648;28;20103;-47
2023/07/05 06:44:15;;;;;;;6.63;2.65;;;13.70;99.90;;;;;;5037807;28;20063;-47
2023/07/05 06:46:41;;;;;;;9.27;3.60;;;13.70;99.90;;;;;;5055492;28;20051;-45
2023/07/05 06:49:08;;;;;;;8.38;2.72;;;13.80;99.90;;;;;;5055188;28;20435;-44
2023/07/05 06:51:35;;;;;;;10.20;2.80;;;13.80;99.90;;;;;;5055407;28;20044;-47
2023/07/05 06:54:02;;;;;;;4.78;2.25;;;14.00;99.90;;;;;;5054929;28;20049;-44
2023/07/05 06:56:29;;;;;;;9.55;3.15;;;14.00;99.90;;;;;;5055143;28;20045;-45
2023/07/05 06:58:55;;;;;;;8.57;2.85;;;14.10;99.90;;;;;;5053795;28;20127;-47
2023/07/05 07:01:22;;;;;;;4.05;2.75;;;14.30;99.90;;;;;;5055107;28;20041;-45
2023/07/05 07:03:49;;;;;;;6.93;2.95;;;14.50;99.90;;;;;;5055106;28;20388;-45
2023/07/05 07:06:16;;;;;;;8.43;3.13;;;14.50;99.90;;;;;;5053547;28;20041;-50
2023/07/05 07:08:43;;;;;;;6.40;2.70;;;14.70;99.90;;;;;;5054878;28;20116;-46
2023/07/05 07:11:10;;;;;;;4.93;2.42;;;14.80;99.90;;;;;;5053878;28;20044;-51
2023/07/05 07:13:36;;;;;;;7.72;2.70;;;14.90;99.90;;;;;;5048741;28;20033;-48
2023/07/05 07:16:04;;;;;;;7.15;2.85;;;14.90;99.90;;;;;;5054245;28;20041;-46
2023/07/05 07:18:31;;;;;;;6.82;2.80;;;14.90;99.90;;;;;;5054247;28;20037;-50
2023/07/05 07:20:59;;;;;;;8.70;3.00;;;14.90;99.90;;;;;;5054289;28;20398;-46
2023/07/05 07:23:26;;;;;;;7.30;2.80;;;14.90;99.90;;;;;;5054418;28;20052;-50
2023/07/05 07:25:53;;;;;;;6.15;3.50;;;14.90;99.90;;;;;;5054349;28;20458;-47
2023/07/05 07:28:20;;;;;;;5.70;3.60;;;15.00;99.90;;;;;;5054219;28;20044;-50
2023/07/05 07:30:47;;;;;;;5.85;3.65;;;14.90;99.90;;;;;;5053919;28;20044;-45
2023/07/05 07:33:13;;;;;;;7.97;3.78;;;14.90;99.90;;;;;;5053824;28;20040;-46
2023/07/05 07:35:40;;;;;;;6.57;4.05;;;15.00;99.90;;;;;;5053781;28;20037;-45
2023/07/05 07:38:10;;;;;;;6.18;3.45;;;15.00;99.90;;;;;;5054164;28;20033;-49
2023/07/05 07:40:37;;;;;;;8.18;3.70;;;15.00;99.90;;;;;;5053182;28;20037;-49
2023/07/05 07:43:03;;;;;;;7.30;3.90;;;15.00;99.90;;;;;;5052625;28;20048;-51
2023/07/05 07:45:30;;;;;;;9.95;4.10;;;15.10;99.90;;;;;;5054553;28;20037;-46
2023/07/05 07:47:57;;;;;;;7.10;3.65;;;15.10;99.90;;;;;;5054664;28;20407;-45
2023/07/05 07:50:24;;;;;;;8.02;4.07;;;15.20;99.90;;;;;;5054345;28;20126;-45
2023/07/05 07:52:51;;;;;;;7.90;4.10;;;15.20;99.90;;;;;;5054111;28;20087;-46
2023/07/05 07:55:18;;;;;;;7.78;3.78;;;15.30;99.90;;;;;;5054382;28;20049;-47
2023/07/05 07:57:45;;;;;;;6.05;3.58;;;15.30;99.90;;;;;;5054469;28;20087;-45
2023/07/05 08:00:12;;;;;;;7.97;3.65;;;15.40;99.90;;;;;;5053328;28;20040;-50
2023/07/05 08:02:39;;;;;;;6.85;3.75;;;15.60;99.90;;;;;;5052963;28;20094;-52
2023/07/05 08:05:05;;;;;;;6.72;3.40;;;15.70;99.90;;;;;;5052988;28;20475;-51
2023/07/05 08:07:33;;;;;;;5.95;3.20;;;15.70;99.90;;;;;;5052997;28;20103;-46
2023/07/05 08:09:59;;;;;;;5.72;3.35;;;15.80;99.90;;;;;;5053406;28;20068;-48
2023/07/05 08:12:26;;;;;;;6.38;3.53;;;15.80;99.90;;;;;;5052532;28;20040;-47
2023/07/05 08:14:53;;;;;;;6.25;3.30;;;15.90;99.90;;;;;;5051261;28;20049;-51
2023/07/05 08:17:21;;;;;;;7.13;3.60;;;15.90;99.90;;;;;;5052400;28;20041;-49
2023/07/05 08:19:49;;;;;;;7.28;3.20;;;15.90;99.90;;;;;;5052450;28;20065;-48
2023/07/05 08:22:16;;;;;;;8.02;3.20;;;15.90;99.90;;;;;;5051728;28;20131;-48
2023/07/05 08:24:45;;;;;;;6.57;3.10;;;15.90;99.90;;;;;;5052942;28;20131;-53
2023/07/05 08:27:12;;;;;;;8.88;3.15;;;16.00;99.90;;;;;;5052942;28;20128;-52
2023/07/05 08:29:39;;;;;;;5.80;2.92;;;16.20;99.90;;;;;;5053221;28;20041;-47
2023/07/05 08:32:05;;;;;;;4.50;2.90;;;16.30;99.90;;;;;;5053504;28;20062;-52
2023/07/05 08:34:32;;;;;;;5.00;2.70;;;16.40;99.90;;;;;;5053482;28;20041;-49
2023/07/05 08:37:03;;;;;;;5.82;2.72;;;16.50;99.90;;;;;;5053721;28;20049;-50
2023/07/05 08:39:30;;;;;;;4.15;2.50;;;16.50;99.90;;;;;;5053719;28;20044;-49
2023/07/05 08:42:00;;;;;;;6.05;2.83;;;16.30;99.90;;;;;;5052548;28;20120;-48
2023/07/05 08:44:27;;;;;;;6.13;2.78;;;16.40;99.90;;;;;;5053308;28;20443;-49
2023/07/05 08:46:54;;;;;;;7.15;4.30;;;16.40;99.90;;;;;;5053739;28;20119;-49
2023/07/05 08:49:21;;;;;;;6.07;2.72;;;16.50;99.90;;;;;;5053442;28;20128;-53
2023/07/05 08:51:47;;;;;;;6.75;2.65;;;16.60;99.90;;;;;;5052180;28;20052;-49
2023/07/05 08:54:16;;;;;;;5.75;2.47;;;16.70;99.90;;;;;;5052160;28;20045;-50
2023/07/05 08:56:43;;;;;;;4.75;2.47;;;16.70;99.90;;;;;;5053880;28;20080;-46
2023/07/05 08:59:12;;;;;;;4.20;2.53;;;16.80;99.90;;;;;;5053556;28;20041;-46
2023/07/05 09:01:39;;;;;;;8.18;2.55;;;16.90;99.90;;;;;;5053506;28;20136;-45
2023/07/05 09:04:06;;;;;;;6.72;2.70;;;17.00;99.90;;;;;;5052405;28;20053;-51
2023/07/05 09:06:33;;;;;;;4.07;2.40;;;17.00;99.90;;;;;;5046435;28;20041;-50
2023/07/05 09:08:59;;;;;;;8.52;2.45;;;17.00;99.90;;;;;;5051968;28;20120;-47
2023/07/05 09:11:26;;;;;;;6.22;2.60;;;17.00;99.90;;;;;;5052484;28;20510;-50
2023/07/05 09:13:53;;;;;;;5.22;2.53;;;16.90;99.90;;;;;;5052374;28;20092;-48
2023/07/05 09:16:20;;;;;;;8.35;2.47;;;16.90;99.90;;;;;;5052404;28;20033;-48
2023/07/05 09:18:47;;;;;;;4.72;2.33;;;16.90;99.90;;;;;;5052534;28;20067;-48
2023/07/05 09:21:14;;;;;;;7.03;2.90;;;16.90;99.90;;;;;;5051221;28;20047;-51
2023/07/05 09:23:41;;;;;;;7.45;2.50;;;16.80;99.90;;;;;;5052482;28;20049;-49
2023/07/05 09:26:07;;;;;;;4.50;2.50;;;16.80;99.90;;;;;;5052193;28;20045;-48
2023/07/05 09:28:34;;;;;;;6.13;2.55;;;16.90;99.90;;;;;;5051034;28;20487;-51
2023/07/05 09:31:01;;;;;;;18.88;4.28;;;16.90;99.90;;;;;;5046863;28;20503;-49
2023/07/05 09:33:28;;;;;;;18.33;4.18;;;16.90;99.90;;;;;;5051133;28;20037;-51
2023/07/05 09:35:55;;;;;;;6.22;2.80;;;17.00;99.90;;;;;;5050861;28;20059;-51
2023/07/05 09:38:22;;;;;;;7.03;2.58;;;17.00;99.90;;;;;;5052131;28;20045;-51
2023/07/05 09:40:49;;;;;;;4.95;2.30;;;17.00;99.90;;;;;;5052432;28;20049;-48
2023/07/05 09:43:16;;;;;;;7.93;2.40;;;17.10;99.90;;;;;;5051170;28;20594;-46
2023/07/05 09:45:43;;;;;;;6.57;2.50;;;17.20;99.90;;;;;;5052403;28;20041;-48
2023/07/05 09:48:10;;;;;;;4.78;1.95;;;17.40;99.90;;;;;;5052124;28;20051;-52
2023/07/05 09:50:37;;;;;;;3.30;1.83;;;17.60;99.90;;;;;;5051054;28;20491;-46
2023/07/05 09:53:04;;;;;;;6.93;2.20;;;17.70;99.90;;;;;;5051857;28;20045;-48
2023/07/05 09:55:32;;;;;;;4.18;2.10;;;17.70;99.90;;;;;;5052239;28;20043;-50
2023/07/05 09:57:59;;;;;;;3.72;1.90;;;17.60;99.90;;;;;;5050800;28;20132;-49
2023/07/05 10:00:26;;;;;;;4.95;2.30;;;17.50;99.90;;;;;;5052237;28;20043;-49
2023/07/05 10:02:56;;;;;;;5.32;2.40;;;17.60;99.90;;;;;;5051716;28;20041;-48
2023/07/05 10:05:23;;;;;;;5.93;2.20;;;17.60;99.90;;;;;;5054795;28;20120;-47
2023/07/05 10:07:51;;;;;;;4.10;2.08;;;17.50;99.90;;;;;;5055695;28;20500;-50
2023/07/05 10:10:18;;;;;;;3.85;1.88;;;17.40;99.90;;;;;;5055028;28;20037;-48
2023/07/05 10:12:46;;;;;;;3.97;1.98;;;17.30;99.90;;;;;;5055668;28;20037;-47
2023/07/05 10:15:21;;;;;;;6.30;2.60;;;17.30;99.90;;;;;;5055536;28;20074;-47
2023/07/05 10:17:48;;;;;;;16.50;3.25;;;17.30;99.90;;;;;;5055620;28;20064;-47
2023/07/05 10:20:15;;;;;;;6.78;2.20;;;17.50;99.90;;;;;;5055232;28;20037;-47
2023/07/05 10:22:42;;;;;;;5.72;2.75;;;17.70;99.90;;;;;;5055417;28;20051;-48
2023/07/05 10:25:13;;;;;;;3.63;2.13;;;18.00;99.90;;;;;;5055167;28;20053;-47
2023/07/05 10:27:40;;;;;;;3.60;2.00;;;18.00;99.90;;;;;;5054062;28;20424;-47
2023/07/05 10:30:13;;;;;;;7.47;2.15;;;18.10;99.90;;;;;;5054866;28;20059;-49
2023/07/05 10:32:40;;;;;;;3.95;2.17;;;18.20;99.90;;;;;;5053791;28;20045;-50
2023/07/05 10:35:07;;;;;;;4.10;1.98;;;18.20;99.90;;;;;;5055081;28;20122;-48
2023/07/05 10:37:34;;;;;;;4.88;1.77;;;18.30;99.90;;;;;;5055235;28;20044;-47
2023/07/05 10:40:09;;;;;;;4.35;2.30;;;18.30;99.90;;;;;;5054884;28;20037;-48
2023/07/05 10:42:39;;;;;;;4.30;1.75;;;18.50;99.90;;;;;;5054921;28;20435;-52
2023/07/05 10:45:06;;;;;;;4.97;2.33;;;18.50;99.90;;;;;;5054628;28;20488;-47
2023/07/05 10:47:33;;;;;;;4.90;1.98;;;18.50;99.90;;;;;;5053909;28;20053;-47
2023/07/05 10:50:00;;;;;;;4.35;1.85;;;18.50;99.90;;;;;;5053740;28;20045;-47
2023/07/05 10:52:27;;;;;;;3.63;2.10;;;18.60;99.90;;;;;;5054776;28;20045;-47
2023/07/05 10:54:54;;;;;;;5.95;2.00;;;18.70;99.90;;;;;;5054883;28;20091;-52
2023/07/05 10:57:21;;;;;;;9.13;2.60;;;18.80;98.80;;;;;;5054593;28;20554;-54
2023/07/05 10:59:47;;;;;;;4.63;2.20;;;19.00;99.50;;;;;;5053512;28;20098;-48
2023/07/05 11:02:14;;;;;;;5.95;2.20;;;19.20;99.10;;;;;;5053256;28;20438;-49
2023/07/05 11:04:42;;;;;;;4.22;1.90;;;19.40;98.00;;;;;;5054510;28;20500;-49
2023/07/05 11:07:12;;;;;;;4.05;1.92;;;19.50;98.40;;;;;;5054824;28;20048;-52
2023/07/05 11:09:40;;;;;;;3.17;1.80;;;19.40;97.30;;;;;;5054179;28;20110;-53
2023/07/05 11:12:08;;;;;;;3.20;1.60;;;19.40;97.30;;;;;;5054567;28;20060;-49
2023/07/05 11:14:35;;;;;;;2.42;1.50;;;19.20;97.20;;;;;;5054252;28;20052;-48
2023/07/05 11:17:02;;;;;;;3.13;1.70;;;19.00;97.00;;;;;;5053050;28;20048;-49
2023/07/05 11:19:29;;;;;;;3.05;1.90;;;19.00;98.20;;;;;;5053098;28;20087;-47
2023/07/05 11:21:56;;;;;;;2.88;1.80;;;19.00;98.60;;;;;;5054242;28;20045;-53
2023/07/05 11:24:22;;;;;;;3.90;1.90;;;19.00;99.50;;;;;;5054126;28;20083;-49
2023/07/05 11:26:49;;;;;;;3.75;1.63;;;18.90;99.00;;;;;;5054313;28;20052;-47
2023/07/05 11:29:16;;;;;;;4.63;1.73;;;18.90;98.80;;;;;;5069460;28;20569;-47
2023/07/05 11:31:43;;;;;;;3.60;1.23;;;19.00;98.50;;;;;;5054052;28;20040;-48
2023/07/05 11:34:10;;;;;;;3.72;1.48;;;18.80;97.10;;;;;;5053089;28;20551;-45
2023/07/05 11:36:39;;;;;;;4.07;1.60;;;18.80;97.60;;;;;;5054481;28;20099;-49
2023/07/05 11:39:06;;;;;;;2.08;1.30;;;18.90;98.10;;;;;;5054500;28;20041;-45
2023/07/05 11:41:32;;;;;;;2.33;1.15;;;19.00;96.40;;;;;;5053975;28;20037;-52
2023/07/05 11:44:00;;;;;;;2.67;1.30;;;19.20;97.10;;;;;;5054078;28;20048;-51
2023/07/05 11:46:27;;;;;;;2.35;1.33;;;19.00;96.00;;;;;;5053626;28;20041;-50
2023/07/05 11:48:56;;;;;;;3.25;1.20;;;19.00;96.10;;;;;;5054197;28;20049;-49
2023/07/05 11:51:23;;;;;;;3.45;1.30;;;19.00;95.90;;;;;;5053503;28;20048;-46
2023/07/05 11:53:55;;;;;;;3.35;1.33;;;19.00;96.80;;;;;;5053935;28;20471;-51
2023/07/05 11:56:26;;;;;;;3.78;1.10;;;19.00;96.10;;;;;;5052747;28;20033;-48
2023/07/05 11:58:53;;;;;;;2.17;1.13;;;18.90;95.60;;;;;;5050547;28;20040;-47
2023/07/05 12:01:23;;;;;;;3.33;1.67;;;18.90;95.40;;;;;;5036047;28;20377;-48
2023/07/05 12:03:50;;;;;;;2.60;1.35;;;18.90;96.10;;;;;;5051106;28;20071;-46
2023/07/05 12:06:17;;;;;;;3.03;1.48;;;18.90;95.20;;;;;;5053486;28;20052;-47
2023/07/05 12:08:44;;;;;;;3.97;1.27;;;19.00;94.20;;;;;;5053256;28;20076;-46
2023/07/05 12:11:11;;;;;;;2.63;1.30;;;19.10;95.40;;;;;;5052875;28;20045;-46
2023/07/05 12:13:38;;;;;;;3.85;1.30;;;19.40;95.10;;;;;;5052227;28;20067;-46
2023/07/05 12:16:05;;;;;;;3.35;1.48;;;19.50;94.60;;;;;;5053424;28;20246;-49
2023/07/05 12:18:32;;;;;;;3.70;1.45;;;19.60;94.70;;;;;;5051494;28;20041;-51
2023/07/05 12:20:58;;;;;;;2.58;1.25;;;19.60;94.70;;;;;;5053239;28;20484;-50
2023/07/05 12:23:28;;;;;;;2.78;1.30;;;19.50;95.40;;;;;;5053074;28;20049;-49
2023/07/05 12:25:55;;;;;;;3.75;1.30;;;19.50;94.50;;;;;;5053315;28;20120;-46
2023/07/05 12:28:22;;;;;;;2.65;1.20;;;19.30;94.80;;;;;;5052771;28;20098;-46
2023/07/05 12:30:49;;;;;;;7.07;1.42;;;18.90;96.00;;;;;;5053202;28;20442;-45
2023/07/05 12:33:15;;;;;;;4.28;1.50;;;18.20;98.90;;;;;;5052018;28;20052;-47
2023/07/05 12:35:42;;;;;;;6.90;1.73;;;17.70;99.60;;;;;;5053214;28;20044;-46
2023/07/05 12:38:09;;;;;;;2.15;1.13;;;17.00;99.90;;;;;;5051703;28;20051;-51
2023/07/05 12:40:36;;;;;;;3.95;1.30;;;16.50;99.90;;;;;;5052831;28;20486;-48
2023/07/05 12:43:03;;;;;;;3.47;1.10;;;16.30;99.90;;;;;;5052871;28;20158;-46